Time;durP1;ratioP1;P1;durP2;ratioP2;P2;SDS_P1;SDS_P2;PMS_P1;PMS_P2;Temp;Humidity;BMP_temperature;BMP_pressure;BME280_temperature;BME280_humidity;BME280_pressure;Samples;Min_cycle;Max_cycle;Signal;HPM_P1;HPM_P2
2022/09/07 00:01:53;;;;;;;13.15;12.35;;;;;;;;;;5000627;28;20057;-64
2022/09/07 00:04:19;;;;;;;16.65;15.75;;;;;;;;;;5001283;28;20053;-64
2022/09/07 00:06:44;;;;;;;14.85;13.95;;;;;;;;;;5000218;28;20408;-63
2022/09/07 00:09:10;;;;;;;13.73;12.93;;;;;;;;;;4996741;28;20065;-63
2022/09/07 00:11:35;;;;;;;14.35;13.45;;;;;;;;;;4997486;28;20345;-63
2022/09/07 00:14:00;;;;;;;15.60;14.70;;;;;;;;;;5000035;28;20049;-63
2022/09/07 00:16:28;;;;;;;14.95;14.10;;;;;;;;;;4999404;28;20046;-63
2022/09/07 00:18:58;;;;;;;16.40;15.50;;;;;;;;;;4997023;28;20105;-64
2022/09/07 00:21:25;;;;;;;13.80;13.00;;;;;;;;;;4999403;28;20189;-64
2022/09/07 00:23:50;;;;;;;15.75;14.85;;;;;;;;;;5000043;28;20040;-64
2022/09/07 00:26:27;;;;;;;15.93;15.02;;;;;;;;;;5000226;28;20034;-64
2022/09/07 00:28:57;;;;;;;15.38;14.48;;;;;;;;;;4999562;28;20053;-64
2022/09/07 00:31:23;;;;;;;16.02;15.13;;;;;;;;;;5001236;28;20491;-64
2022/09/07 00:33:50;;;;;;;17.15;16.15;;;;;;;;;;4996712;28;20069;-64
2022/09/07 00:36:17;;;;;;;17.30;16.33;;;;;;;;;;4997903;28;20092;-64
2022/09/07 00:38:42;;;;;;;17.52;16.35;;;;;;;;;;4997725;28;20033;-64
2022/09/07 00:41:08;;;;;;;18.88;17.85;;;;;;;;;;4999321;28;20065;-63
2022/09/07 00:43:38;;;;;;;15.35;14.25;;;;;;;;;;4999536;28;20030;-63
2022/09/07 00:46:04;;;;;;;;;;;;;;;;;;4998912;28;20034;-64
2022/09/07 00:48:48;;;;;;;14.95;14.05;;;;;;;;;;5027852;28;19929;-64
2022/09/07 00:51:20;;;;;;;19.42;18.35;;;;;;;;;;4999013;28;20014;-64
2022/09/07 00:53:53;;;;;;;19.30;18.23;;;;;;;;;;4997294;28;20034;-64
2022/09/07 00:56:22;;;;;;;19.77;18.70;;;;;;;;;;4999034;28;20061;-64
2022/09/07 00:58:48;;;;;;;21.52;20.35;;;;;;;;;;4998489;28;20043;-64
2022/09/07 01:01:15;;;;;;;23.65;22.35;;;;;;;;;;4997113;28;20030;-63
2022/09/07 01:03:44;;;;;;;23.58;22.33;;;;;;;;;;4998979;28;20041;-61
2022/09/07 01:06:22;;;;;;;23.92;22.65;;;;;;;;;;4998805;28;20499;-63
2022/09/07 01:08:49;;;;;;;26.30;24.90;;;;;;;;;;4998301;28;20052;-62
2022/09/07 01:11:17;;;;;;;24.65;23.35;;;;;;;;;;4999060;28;20034;-62
2022/09/07 01:13:44;;;;;;;19.63;18.52;;;;;;;;;;4997988;28;20635;-62
2022/09/07 01:16:20;;;;;;;20.83;19.70;;;;;;;;;;4999898;28;20110;-63
2022/09/07 01:18:59;;;;;;;20.13;19.02;;;;;;;;;;4999572;28;20121;-62
2022/09/07 01:21:31;;;;;;;18.63;17.63;;;;;;;;;;4998226;28;20038;-62
2022/09/07 01:24:03;;;;;;;19.90;18.80;;;;;;;;;;4998433;28;20038;-64
2022/09/07 01:26:58;;;;;;;22.75;21.50;;;;;;;;;;4999432;28;20042;-64
2022/09/07 01:29:38;;;;;;;22.45;21.15;;;;;;;;;;4997902;28;20038;-64
2022/09/07 01:32:41;;;;;;;31.23;29.58;;;;;;;;;;4998963;28;20590;-64
2022/09/07 01:35:21;;;;;;;29.98;28.42;;;;;;;;;;4997476;28;20045;-64
2022/09/07 01:37:59;;;;;;;41.38;39.22;;;;;;;;;;5000815;28;20026;-64
2022/09/07 01:40:37;;;;;;;56.63;53.78;;;;;;;;;;5003775;28;20033;-65
2022/09/07 01:43:10;;;;;;;69.20;65.75;;;;;;;;;;4998760;28;20048;-65
2022/09/07 01:45:40;;;;;;;70.25;66.57;;;;;;;;;;5000553;28;20042;-66
2022/09/07 01:48:09;;;;;;;58.25;55.35;;;;;;;;;;4999306;28;20044;-65
2022/09/07 01:50:42;;;;;;;55.05;52.22;;;;;;;;;;5000556;28;20435;-65
2022/09/07 01:53:39;;;;;;;51.17;48.60;;;;;;;;;;4998462;28;20062;-65
2022/09/07 01:56:12;;;;;;;45.60;43.28;;;;;;;;;;4993351;28;20142;-65
2022/09/07 01:58:55;;;;;;;37.65;35.70;;;;;;;;;;4999531;28;20041;-64
2022/09/07 02:01:32;;;;;;;41.20;38.92;;;;;;;;;;4999310;28;20022;-62
2022/09/07 02:04:10;;;;;;;39.47;37.45;;;;;;;;;;4996195;28;20034;-62
2022/09/07 02:06:45;;;;;;;39.95;37.85;;;;;;;;;;4998023;28;20049;-62
2022/09/07 02:09:29;;;;;;;38.50;36.53;;;;;;;;;;5000259;28;20092;-63
2022/09/07 02:11:55;;;;;;;34.42;32.65;;;;;;;;;;5000854;28;20030;-63
2022/09/07 02:14:33;;;;;;;34.17;32.40;;;;;;;;;;4996870;28;20042;-62
2022/09/07 02:17:13;;;;;;;36.35;34.50;;;;;;;;;;4996414;28;20040;-63
2022/09/07 02:19:42;;;;;;;35.35;33.53;;;;;;;;;;4998556;28;20038;-63
2022/09/07 02:22:13;;;;;;;34.38;32.60;;;;;;;;;;5000284;28;20053;-61
2022/09/07 02:24:44;;;;;;;39.60;37.53;;;;;;;;;;5001479;28;20618;-61
2022/09/07 02:27:13;;;;;;;45.70;43.38;;;;;;;;;;4999086;28;20026;-60
2022/09/07 02:29:39;;;;;;;42.28;40.13;;;;;;;;;;5001402;28;20033;-61
2022/09/07 02:32:04;;;;;;;50.25;47.70;;;;;;;;;;4995612;28;20038;-62
2022/09/07 02:34:31;;;;;;;93.82;89.07;;;;;;;;;;4996292;28;20500;-64
2022/09/07 02:37:00;;;;;;;53.40;50.70;;;;;;;;;;4999315;28;20032;-67
2022/09/07 02:39:25;;;;;;;55.30;52.50;;;;;;;;;;4993517;28;20038;-67
2022/09/07 02:41:50;;;;;;;61.20;58.08;;;;;;;;;;4996579;28;20760;-67
2022/09/07 02:44:19;;;;;;;58.85;55.85;;;;;;;;;;4997663;28;20036;-67
2022/09/07 02:47:00;;;;;;;54.70;51.90;;;;;;;;;;4996962;28;20411;-66
2022/09/07 02:49:28;;;;;;;49.65;47.13;;;;;;;;;;4996937;28;20052;-67
2022/09/07 02:52:18;;;;;;;46.60;44.20;;;;;;;;;;4995230;28;20056;-68
2022/09/07 02:55:02;;;;;;;54.30;51.53;;;;;;;;;;4993981;28;20121;-66
2022/09/07 02:57:31;;;;;;;59.30;56.33;;;;;;;;;;4997911;28;20052;-67
2022/09/07 03:00:11;;;;;;;58.60;55.50;;;;;;;;;;4998669;28;20030;-66
2022/09/07 03:02:59;;;;;;;61.63;58.40;;;;;;;;;;4997214;28;20042;-66
2022/09/07 03:06:02;;;;;;;71.35;67.40;;;;;;;;;;4996109;28;20026;-66
2022/09/07 03:08:36;;;;;;;66.13;62.80;;;;;;;;;;4960023;28;20374;-67
2022/09/07 03:11:06;;;;;;;72.60;68.97;;;;;;;;;;4992410;28;20448;-68
2022/09/07 03:13:31;;;;;;;81.95;77.85;;;;;;;;;;4994641;28;20050;-68
2022/09/07 03:15:57;;;;;;;81.95;77.75;;;;;;;;;;4996850;28;20060;-68
2022/09/07 03:18:24;;;;;;;84.80;80.53;;;;;;;;;;4996711;28;20419;-68
2022/09/07 03:20:49;;;;;;;87.97;83.53;;;;;;;;;;4995378;28;20114;-68
2022/09/07 03:23:14;;;;;;;85.55;81.13;;;;;;;;;;4995315;28;20116;-68
2022/09/07 03:25:40;;;;;;;81.85;77.70;;;;;;;;;;4998932;28;20054;-67
2022/09/07 03:28:05;;;;;;;64.53;61.25;;;;;;;;;;4997297;28;20044;-67
2022/09/07 03:30:31;;;;;;;64.03;60.67;;;;;;;;;;4997657;28;20046;-67
2022/09/07 03:32:56;;;;;;;66.35;63.00;;;;;;;;;;4996245;28;20041;-67
2022/09/07 03:35:21;;;;;;;63.63;60.35;;;;;;;;;;4999500;28;20084;-66
2022/09/07 03:37:47;;;;;;;61.53;58.35;;;;;;;;;;4999951;28;20116;-67
2022/09/07 03:40:13;;;;;;;51.28;48.67;;;;;;;;;;4999405;28;20068;-66
2022/09/07 03:42:39;;;;;;;54.60;51.80;;;;;;;;;;4994773;28;20066;-66
2022/09/07 03:45:06;;;;;;;60.38;57.30;;;;;;;;;;5001129;28;20076;-66
2022/09/07 03:47:35;;;;;;;53.65;50.92;;;;;;;;;;4998036;28;20038;-66
2022/09/07 03:50:01;;;;;;;53.30;50.58;;;;;;;;;;4995406;28;20096;-66
2022/09/07 03:52:26;;;;;;;36.30;34.40;;;;;;;;;;4997258;28;20030;-66
2022/09/07 03:54:52;;;;;;;38.15;36.17;;;;;;;;;;4998277;28;20026;-66
2022/09/07 03:57:19;;;;;;;39.15;37.10;;;;;;;;;;4999480;28;20115;-66
2022/09/07 03:59:45;;;;;;;41.30;39.17;;;;;;;;;;4998768;28;20033;-66
2022/09/07 04:02:10;;;;;;;39.22;37.17;;;;;;;;;;4998254;28;20117;-66
2022/09/07 04:04:35;;;;;;;35.05;33.17;;;;;;;;;;4994545;28;20158;-66
2022/09/07 04:07:01;;;;;;;34.50;32.58;;;;;;;;;;4997446;28;20041;-66
2022/09/07 04:09:26;;;;;;;33.17;31.48;;;;;;;;;;5001252;28;20041;-65
2022/09/07 04:11:52;;;;;;;26.08;24.67;;;;;;;;;;4996229;28;20096;-66
2022/09/07 04:14:17;;;;;;;24.55;23.20;;;;;;;;;;5000278;28;20030;-66
2022/09/07 04:16:44;;;;;;;28.92;27.42;;;;;;;;;;4998187;28;20128;-66
2022/09/07 04:19:09;;;;;;;21.67;20.48;;;;;;;;;;5002383;28;20159;-65
2022/09/07 04:21:35;;;;;;;17.50;16.40;;;;;;;;;;4999278;28;20038;-65
2022/09/07 04:24:00;;;;;;;15.48;14.60;;;;;;;;;;4998824;28;20141;-65
2022/09/07 04:26:32;;;;;;;22.52;21.13;;;;;;;;;;4996931;28;20068;-66
2022/09/07 04:28:59;;;;;;;16.52;15.60;;;;;;;;;;4997816;28;20046;-66
2022/09/07 04:31:25;;;;;;;22.65;21.42;;;;;;;;;;5004967;28;20137;-66
2022/09/07 04:33:50;;;;;;;30.33;28.52;;;;;;;;;;4999576;28;20519;-65
2022/09/07 04:36:17;;;;;;;25.88;24.50;;;;;;;;;;4994434;28;20033;-66
2022/09/07 04:38:42;;;;;;;27.65;26.17;;;;;;;;;;4997838;28;20041;-65
2022/09/07 04:41:17;;;;;;;30.30;28.60;;;;;;;;;;4998593;28;20042;-66
2022/09/07 04:43:44;;;;;;;32.63;30.92;;;;;;;;;;4999516;28;20033;-65
2022/09/07 04:46:22;;;;;;;33.35;31.55;;;;;;;;;;4997473;28;20112;-65
2022/09/07 04:48:52;;;;;;;29.80;28.20;;;;;;;;;;4998195;28;20518;-65
2022/09/07 04:51:19;;;;;;;28.70;27.17;;;;;;;;;;4992952;28;20406;-65
2022/09/07 04:53:50;;;;;;;34.70;32.78;;;;;;;;;;4996511;28;20133;-65
2022/09/07 04:56:17;;;;;;;33.63;31.85;;;;;;;;;;5000911;28;20029;-65
2022/09/07 04:58:43;;;;;;;27.75;26.30;;;;;;;;;;4997975;28;20042;-65
2022/09/07 05:01:09;;;;;;;26.42;25.02;;;;;;;;;;4996327;28;20038;-65
2022/09/07 05:03:37;;;;;;;20.50;19.38;;;;;;;;;;4996151;28;20246;-65
2022/09/07 05:06:04;;;;;;;20.95;19.83;;;;;;;;;;5000451;28;20033;-66
2022/09/07 05:08:34;;;;;;;21.25;20.05;;;;;;;;;;4995448;28;20543;-65
2022/09/07 05:10:59;;;;;;;19.88;18.77;;;;;;;;;;4999181;28;20518;-65
2022/09/07 05:13:25;;;;;;;19.60;18.35;;;;;;;;;;4994464;28;20042;-65
2022/09/07 05:15:50;;;;;;;20.73;19.55;;;;;;;;;;4995212;28;20084;-65
2022/09/07 05:18:16;;;;;;;18.67;17.58;;;;;;;;;;4997531;28;20103;-65
2022/09/07 05:20:41;;;;;;;18.38;17.27;;;;;;;;;;4995296;28;20474;-65
2022/09/07 05:23:07;;;;;;;15.70;14.80;;;;;;;;;;4994981;28;20438;-65
2022/09/07 05:25:33;;;;;;;20.15;19.05;;;;;;;;;;4998023;28;20026;-65
2022/09/07 05:27:58;;;;;;;16.10;15.20;;;;;;;;;;4999083;28;20022;-65
2022/09/07 05:30:24;;;;;;;15.85;14.95;;;;;;;;;;4998899;28;20073;-65
2022/09/07 05:32:50;;;;;;;15.93;15.02;;;;;;;;;;4996738;28;20061;-65
2022/09/07 05:35:17;;;;;;;16.73;15.77;;;;;;;;;;4998474;28;20030;-65
2022/09/07 05:37:48;;;;;;;17.30;16.17;;;;;;;;;;4998001;28;20060;-65
2022/09/07 05:40:14;;;;;;;18.25;17.23;;;;;;;;;;4998239;28;20053;-66
2022/09/07 05:42:39;;;;;;;18.20;17.17;;;;;;;;;;4996392;28;20042;-65
2022/09/07 05:45:05;;;;;;;20.17;19.00;;;;;;;;;;5000413;28;20041;-65
2022/09/07 05:47:31;;;;;;;16.52;15.52;;;;;;;;;;4999998;28;20045;-66
2022/09/07 05:49:56;;;;;;;14.25;13.43;;;;;;;;;;4999107;28;20042;-66
2022/09/07 05:52:21;;;;;;;17.70;16.67;;;;;;;;;;4993390;28;20110;-66
2022/09/07 05:54:47;;;;;;;16.13;15.20;;;;;;;;;;4994125;28;20037;-66
2022/09/07 05:57:12;;;;;;;16.83;15.85;;;;;;;;;;4994572;28;20025;-66
2022/09/07 05:59:39;;;;;;;17.33;16.38;;;;;;;;;;4995712;28;20026;-66
2022/09/07 06:02:04;;;;;;;17.23;16.25;;;;;;;;;;4999440;28;20056;-66
2022/09/07 06:04:30;;;;;;;15.80;14.88;;;;;;;;;;4997543;28;20037;-66
2022/09/07 06:06:55;;;;;;;15.40;14.50;;;;;;;;;;4994152;28;20100;-66
2022/09/07 06:09:21;;;;;;;13.98;13.15;;;;;;;;;;4994798;28;20037;-66
2022/09/07 06:11:46;;;;;;;12.00;11.30;;;;;;;;;;4994165;28;20081;-66
2022/09/07 06:14:11;;;;;;;10.48;9.88;;;;;;;;;;4997050;28;20030;-66
2022/09/07 06:16:37;;;;;;;13.82;13.02;;;;;;;;;;4998691;28;20387;-66
2022/09/07 06:19:06;;;;;;;16.10;15.15;;;;;;;;;;4998793;28;20040;-66
2022/09/07 06:21:36;;;;;;;17.37;16.37;;;;;;;;;;4993709;28;20409;-65
2022/09/07 06:24:02;;;;;;;18.50;17.30;;;;;;;;;;4996725;28;20269;-66
2022/09/07 06:26:28;;;;;;;18.67;17.58;;;;;;;;;;4994466;28;20101;-66
2022/09/07 06:28:54;;;;;;;18.65;17.55;;;;;;;;;;4991992;28;20113;-66
2022/09/07 06:31:21;;;;;;;13.20;12.40;;;;;;;;;;4997366;28;20018;-66
2022/09/07 06:33:47;;;;;;;18.25;17.25;;;;;;;;;;4997567;28;20030;-66
2022/09/07 06:36:15;;;;;;;18.13;17.02;;;;;;;;;;4995803;28;20088;-66
2022/09/07 06:38:41;;;;;;;24.20;22.90;;;;;;;;;;4995536;28;20120;-66
2022/09/07 06:41:28;;;;;;;21.20;19.90;;;;;;;;;;4997130;28;20368;-66
2022/09/07 06:43:54;;;;;;;22.23;20.88;;;;;;;;;;4993701;28;20034;-66
2022/09/07 06:46:21;;;;;;;23.63;22.33;;;;;;;;;;4993109;28;20155;-66
2022/09/07 06:48:46;;;;;;;20.30;19.13;;;;;;;;;;4998324;28;20025;-65
2022/09/07 06:51:19;;;;;;;22.08;20.88;;;;;;;;;;4993430;28;20491;-66
2022/09/07 06:53:47;;;;;;;21.05;19.88;;;;;;;;;;4996554;28;20119;-65
2022/09/07 06:56:14;;;;;;;18.10;17.02;;;;;;;;;;4994189;28;20356;-66
2022/09/07 06:58:40;;;;;;;23.63;22.33;;;;;;;;;;4994609;28;20092;-65
2022/09/07 07:01:08;;;;;;;25.88;24.50;;;;;;;;;;4995575;28;20041;-66
2022/09/07 07:03:35;;;;;;;24.83;23.52;;;;;;;;;;4995245;28;20095;-65
2022/09/07 07:06:00;;;;;;;22.48;21.27;;;;;;;;;;4995343;28;20027;-65
2022/09/07 07:08:25;;;;;;;19.60;18.50;;;;;;;;;;4995059;28;20042;-65
2022/09/07 07:10:51;;;;;;;19.60;18.50;;;;;;;;;;4996459;28;20042;-65
2022/09/07 07:13:18;;;;;;;22.98;21.77;;;;;;;;;;4994779;28;20037;-65
2022/09/07 07:15:44;;;;;;;26.38;24.88;;;;;;;;;;4993817;28;20037;-65
2022/09/07 07:18:11;;;;;;;29.80;28.20;;;;;;;;;;4992893;28;20030;-65
2022/09/07 07:20:38;;;;;;;31.15;28.85;;;;;;;;;;4994903;28;20632;-65
2022/09/07 07:23:04;;;;;;;26.63;25.15;;;;;;;;;;4997526;28;20030;-65
2022/09/07 07:25:29;;;;;;;26.48;25.05;;;;;;;;;;4996260;28;20033;-65
2022/09/07 07:27:54;;;;;;;30.17;28.55;;;;;;;;;;4997566;28;20057;-65
2022/09/07 07:30:20;;;;;;;31.15;29.50;;;;;;;;;;4998498;28;20077;-65
2022/09/07 07:32:46;;;;;;;40.17;38.13;;;;;;;;;;4997940;28;20092;-65
2022/09/07 07:35:13;;;;;;;35.97;34.13;;;;;;;;;;4998611;28;20038;-65
2022/09/07 07:37:38;;;;;;;32.40;30.70;;;;;;;;;;4998406;28;20034;-65
2022/09/07 07:40:07;;;;;;;39.88;37.75;;;;;;;;;;5001791;28;20045;-65
2022/09/07 07:42:34;;;;;;;39.67;37.25;;;;;;;;;;5000472;28;20065;-65
2022/09/07 07:45:00;;;;;;;46.30;43.83;;;;;;;;;;5000767;28;20033;-64
2022/09/07 07:47:25;;;;;;;40.30;38.20;;;;;;;;;;5000946;28;20041;-65
2022/09/07 07:49:51;;;;;;;48.47;46.00;;;;;;;;;;5000293;28;20538;-64
2022/09/07 07:52:17;;;;;;;53.55;50.83;;;;;;;;;;5000662;28;20030;-65
2022/09/07 07:54:42;;;;;;;48.55;46.03;;;;;;;;;;4999070;28;20057;-66
2022/09/07 07:57:08;;;;;;;47.53;45.05;;;;;;;;;;4997120;28;20069;-65
2022/09/07 07:59:34;;;;;;;56.20;53.30;;;;;;;;;;4998437;28;20121;-65
2022/09/07 08:02:03;;;;;;;60.72;57.67;;;;;;;;;;5000251;28;20030;-65
2022/09/07 08:04:33;;;;;;;64.90;61.63;;;;;;;;;;4996724;28;20518;-65
2022/09/07 08:06:59;;;;;;;65.82;62.55;;;;;;;;;;4999250;28;20042;-65
2022/09/07 08:09:24;;;;;;;69.38;65.75;;;;;;;;;;4999272;28;20036;-65
2022/09/07 08:11:50;;;;;;;56.83;53.88;;;;;;;;;;4997975;28;20621;-65
2022/09/07 08:14:15;;;;;;;56.13;53.28;;;;;;;;;;4998629;28;20122;-65
2022/09/07 08:16:42;;;;;;;72.88;69.25;;;;;;;;;;4998184;28;20037;-65
2022/09/07 08:19:07;;;;;;;64.20;60.90;;;;;;;;;;4996458;28;20053;-65
2022/09/07 08:21:33;;;;;;;45.55;43.20;;;;;;;;;;4997062;28;20030;-65
2022/09/07 08:23:58;;;;;;;32.92;31.23;;;;;;;;;;4998764;28;20640;-65
2022/09/07 08:26:24;;;;;;;40.40;37.55;;;;;;;;;;5001921;28;20033;-63
2022/09/07 08:28:50;;;;;;;47.75;45.15;;;;;;;;;;4998772;28;20026;-64
2022/09/07 08:31:16;;;;;;;42.97;40.80;;;;;;;;;;4998296;28;20448;-64
2022/09/07 08:33:42;;;;;;;49.20;46.50;;;;;;;;;;4999031;28;20026;-64
2022/09/07 08:36:11;;;;;;;54.40;51.67;;;;;;;;;;4998800;28;20036;-64
2022/09/07 08:38:37;;;;;;;58.13;55.15;;;;;;;;;;4983460;28;20026;-64
2022/09/07 08:41:35;;;;;;;59.20;56.25;;;;;;;;;;5002029;28;20713;-64
2022/09/07 08:44:19;;;;;;;54.30;51.38;;;;;;;;;;4997320;28;20619;-63
2022/09/07 08:46:59;;;;;;;44.22;41.83;;;;;;;;;;4997143;28;20637;-64
2022/09/07 08:49:43;;;;;;;46.60;44.20;;;;;;;;;;4997827;28;20698;-63
2022/09/07 08:52:21;;;;;;;38.35;36.35;;;;;;;;;;4996904;28;20072;-63
2022/09/07 08:55:00;;;;;;;46.38;43.97;;;;;;;;;;5000390;28;20058;-63
2022/09/07 08:57:29;;;;;;;38.45;36.45;;;;;;;;;;4998720;28;20065;-63
2022/09/07 09:00:06;;;;;;;34.58;32.78;;;;;;;;;;4997999;28;20034;-60
2022/09/07 09:02:32;;;;;;;65.38;62.13;;;;;;;;;;4997687;28;20030;-62
2022/09/07 09:04:57;;;;;;;50.95;48.35;;;;;;;;;;4997390;28;20395;-63
2022/09/07 09:07:37;;;;;;;34.13;32.33;;;;;;;;;;4998005;28;20100;-63
2022/09/07 09:10:12;;;;;;;53.30;50.53;;;;;;;;;;4998110;28;20034;-62
2022/09/07 09:12:53;;;;;;;56.90;54.05;;;;;;;;;;4998298;28;20033;-62
2022/09/07 09:15:29;;;;;;;65.45;62.20;;;;;;;;;;4993892;28;20318;-63
2022/09/07 09:18:28;;;;;;;74.88;71.15;;;;;;;;;;4996744;28;20027;-61
2022/09/07 09:20:55;;;;;;;73.72;70.07;;;;;;;;;;4994977;28;20034;-62
2022/09/07 09:23:41;;;;;;;28.65;27.13;;;;;;;;;;5001366;28;20491;-62
2022/09/07 09:26:23;;;;;;;110.82;105.40;;;;;;;;;;5000820;28;20038;-62
2022/09/07 09:28:49;;;;;;;104.07;98.90;;;;;;;;;;5000868;28;20041;-62
2022/09/07 09:31:22;;;;;;;126.80;120.53;;;;;;;;;;4997315;28;20107;-62
2022/09/07 09:34:13;;;;;;;99.30;94.45;;;;;;;;;;4997688;28;20531;-62
2022/09/07 09:36:52;;;;;;;106.05;100.85;;;;;;;;;;4995178;28;20041;-61
2022/09/07 09:39:33;;;;;;;43.83;41.53;;;;;;;;;;4998050;28;20022;-61
2022/09/07 09:42:14;;;;;;;115.10;109.43;;;;;;;;;;4995531;28;20042;-61
2022/09/07 09:44:42;;;;;;;37.00;35.05;;;;;;;;;;4993837;28;20156;-62
2022/09/07 09:47:28;;;;;;;46.72;44.35;;;;;;;;;;4998172;28;20109;-61
2022/09/07 09:49:56;;;;;;;35.78;33.92;;;;;;;;;;4995712;28;20041;-61
2022/09/07 09:52:23;;;;;;;51.85;49.22;;;;;;;;;;4996557;28;20044;-61
2022/09/07 09:54:50;;;;;;;13.23;12.43;;;;;;;;;;4995554;28;20038;-63
2022/09/07 09:57:37;;;;;;;48.72;46.25;;;;;;;;;;4998483;28;20037;-61
2022/09/07 10:00:03;;;;;;;21.27;20.02;;;;;;;;;;4986762;28;20522;-62
2022/09/07 10:02:31;;;;;;;24.75;23.40;;;;;;;;;;4993575;28;20472;-60
2022/09/07 10:04:56;;;;;;;12.82;12.07;;;;;;;;;;4998073;28;20030;-60
2022/09/07 10:07:27;;;;;;;25.20;23.80;;;;;;;;;;4997416;28;20057;-60
2022/09/07 10:09:54;;;;;;;17.13;16.13;;;;;;;;;;4997831;28;20089;-60
2022/09/07 10:12:32;;;;;;;18.33;17.33;;;;;;;;;;4997357;28;20049;-60
2022/09/07 10:14:59;;;;;;;12.73;11.93;;;;;;;;;;4999273;28;20033;-60
2022/09/07 10:17:33;;;;;;;13.00;12.27;;;;;;;;;;4995742;28;20115;-60
2022/09/07 10:20:19;;;;;;;15.15;14.27;;;;;;;;;;4994540;28;20118;-61
2022/09/07 10:22:57;;;;;;;18.95;17.90;;;;;;;;;;4992240;28;20077;-61
2022/09/07 10:25:40;;;;;;;26.85;25.30;;;;;;;;;;4997153;28;20071;-60
2022/09/07 10:28:08;;;;;;;19.20;18.17;;;;;;;;;;4992146;28;20042;-61
2022/09/07 10:30:54;;;;;;;19.58;18.50;;;;;;;;;;4995565;28;20051;-61
2022/09/07 10:33:46;;;;;;;18.45;17.45;;;;;;;;;;4989830;28;20042;-60
2022/09/07 10:36:58;;;;;;;18.05;17.05;;;;;;;;;;4995338;28;20125;-61
2022/09/07 10:39:40;;;;;;;21.15;20.00;;;;;;;;;;4974853;28;20507;-60
2022/09/07 10:42:12;;;;;;;13.30;12.50;;;;;;;;;;4995214;28;20045;-60
2022/09/07 10:44:37;;;;;;;25.20;23.90;;;;;;;;;;4994434;28;20401;-60
2022/09/07 10:47:24;;;;;;;13.68;12.88;;;;;;;;;;4997664;28;20125;-61
2022/09/07 10:49:54;;;;;;;8.55;8.02;;;;;;;;;;4997103;28;20455;-61
2022/09/07 10:52:49;;;;;;;10.45;9.85;;;;;;;;;;4994595;28;20033;-61
2022/09/07 10:55:25;;;;;;;11.57;10.88;;;;;;;;;;4993067;28;20049;-61
2022/09/07 10:58:30;;;;;;;13.90;12.90;;;;;;;;;;5002015;28;20149;-61
2022/09/07 11:01:11;;;;;;;11.93;11.23;;;;;;;;;;4996584;28;20119;-62
2022/09/07 11:04:19;;;;;;;10.80;10.10;;;;;;;;;;4995899;28;20026;-62
2022/09/07 11:06:49;;;;;;;18.90;17.80;;;;;;;;;;4986438;28;20038;-62
2022/09/07 11:09:17;;;;;;;9.75;9.15;;;;;;;;;;5002972;28;20034;-61
2022/09/07 11:11:48;;;;;;;9.18;8.55;;;;;;;;;;4993089;28;20573;-63
2022/09/07 11:14:18;;;;;;;12.30;11.55;;;;;;;;;;5003615;28;20033;-62
2022/09/07 11:16:54;;;;;;;10.57;9.88;;;;;;;;;;4995993;28;20779;-62
2022/09/07 11:19:27;;;;;;;13.95;13.15;;;;;;;;;;4995395;28;20105;-62
2022/09/07 11:22:16;;;;;;;15.88;14.88;;;;;;;;;;4994775;28;20045;-62
2022/09/07 11:24:51;;;;;;;28.42;26.70;;;;;;;;;;4997964;28;20038;-62
2022/09/07 11:27:30;;;;;;;31.02;29.42;;;;;;;;;;4991828;28;20107;-62
2022/09/07 11:30:03;;;;;;;25.08;23.75;;;;;;;;;;4994421;28;20531;-63
2022/09/07 11:32:33;;;;;;;39.58;37.55;;;;;;;;;;4994814;28;20040;-62
2022/09/07 11:35:17;;;;;;;;;;;;;;;;;;4997361;28;20033;-61
2022/09/07 11:37:58;;;;;;;39.92;37.85;;;;;;;;;;4994334;28;20011;-61
2022/09/07 11:40:32;;;;;;;51.40;48.72;;;;;;;;;;4998597;28;20486;-62
2022/09/07 11:43:04;;;;;;;60.88;57.83;;;;;;;;;;4995472;28;20022;-61
2022/09/07 11:45:38;;;;;;;60.55;57.50;;;;;;;;;;4996523;28;20052;-61
2022/09/07 11:48:14;;;;;;;52.63;49.95;;;;;;;;;;4994848;28;20030;-62
2022/09/07 11:50:47;;;;;;;63.00;59.72;;;;;;;;;;4995929;28;20034;-61
2022/09/07 11:53:30;;;;;;;44.17;41.92;;;;;;;;;;4994740;28;20038;-61
2022/09/07 11:56:04;;;;;;;47.80;45.40;;;;;;;;;;4997756;28;20431;-61
2022/09/07 11:58:51;;;;;;;56.97;54.08;;;;;;;;;;4993143;28;20030;-61
2022/09/07 12:01:16;;;;;;;55.58;52.78;;;;;;;;;;4995561;28;20514;-61
2022/09/07 12:03:45;;;;;;;47.55;45.05;;;;;;;;;;4998006;28;20042;-62
2022/09/07 12:06:59;;;;;;;54.05;51.33;;;;;;;;;;4993645;28;20030;-60
2022/09/07 12:09:33;;;;;;;53.22;50.53;;;;;;;;;;4960774;28;20070;-61
2022/09/07 12:12:21;;;;;;;70.80;67.25;;;;;;;;;;4995254;28;20508;-60
2022/09/07 12:15:14;;;;;;;62.63;59.45;;;;;;;;;;4996905;28;20034;-60
2022/09/07 12:17:46;;;;;;;82.57;78.47;;;;;;;;;;4998806;28;20205;-60
2022/09/07 12:20:13;;;;;;;80.75;76.75;;;;;;;;;;5002014;28;20038;-60
2022/09/07 12:22:55;;;;;;;85.40;81.20;;;;;;;;;;4995364;28;20590;-61
2022/09/07 12:25:21;;;;;;;83.15;79.00;;;;;;;;;;4996841;28;20060;-61
2022/09/07 12:27:46;;;;;;;92.57;87.97;;;;;;;;;;5000010;28;20055;-60
2022/09/07 12:30:11;;;;;;;114.10;108.47;;;;;;;;;;4994218;28;20025;-61
2022/09/07 12:32:45;;;;;;;72.28;68.68;;;;;;;;;;5001135;28;20624;-60
2022/09/07 12:35:26;;;;;;;93.15;88.55;;;;;;;;;;4999564;28;21040;-61
2022/09/07 12:37:53;;;;;;;96.05;91.00;;;;;;;;;;4996387;28;20038;-60
2022/09/07 12:40:33;;;;;;;80.90;76.90;;;;;;;;;;4999051;28;20029;-61
2022/09/07 12:43:13;;;;;;;98.45;93.57;;;;;;;;;;4999789;28;20053;-60
2022/09/07 12:45:39;;;;;;;93.13;88.53;;;;;;;;;;4997498;28;20042;-60
2022/09/07 12:48:13;;;;;;;103.18;98.07;;;;;;;;;;5003150;28;20042;-61
2022/09/07 12:50:55;;;;;;;93.25;88.65;;;;;;;;;;4996040;28;20042;-60
2022/09/07 12:53:50;;;;;;;107.05;101.78;;;;;;;;;;4997479;28;20119;-60
2022/09/07 12:56:36;;;;;;;107.13;101.82;;;;;;;;;;4997064;28;20114;-60
2022/09/07 12:59:21;;;;;;;109.30;103.85;;;;;;;;;;4995918;28;20038;-60
2022/09/07 13:01:59;;;;;;;105.93;100.70;;;;;;;;;;4999516;28;20027;-59
2022/09/07 13:04:48;;;;;;;105.90;100.65;;;;;;;;;;5000620;28;20478;-60
2022/09/07 13:07:59;;;;;;;159.23;151.38;;;;;;;;;;4997636;28;20034;-59
2022/09/07 13:10:38;;;;;;;155.35;147.68;;;;;;;;;;4990239;28;20041;-59
2022/09/07 13:13:06;;;;;;;166.88;158.50;;;;;;;;;;4995918;28;20780;-59
2022/09/07 13:15:31;;;;;;;180.20;171.38;;;;;;;;;;4999731;28;20041;-59
2022/09/07 13:17:57;;;;;;;135.80;129.10;;;;;;;;;;4995554;28;20038;-60
2022/09/07 13:20:28;;;;;;;117.20;111.40;;;;;;;;;;4996344;28;20436;-59
2022/09/07 13:22:56;;;;;;;147.85;140.55;;;;;;;;;;4996899;28;20080;-59
2022/09/07 13:25:22;;;;;;;148.07;140.77;;;;;;;;;;4998057;28;20026;-59
2022/09/07 13:27:52;;;;;;;136.20;129.48;;;;;;;;;;4994133;28;20104;-59
2022/09/07 13:30:26;;;;;;;190.15;180.82;;;;;;;;;;4996618;28;20018;-59
2022/09/07 13:33:23;;;;;;;261.20;248.48;;;;;;;;;;4999212;28;20030;-59
2022/09/07 13:35:55;;;;;;;316.85;301.15;;;;;;;;;;4997543;28;20089;-59
2022/09/07 13:38:21;;;;;;;328.30;312.02;;;;;;;;;;4996956;28;20033;-59
2022/09/07 13:40:51;;;;;;;326.27;310.02;;;;;;;;;;4999273;28;20118;-60
2022/09/07 13:43:23;;;;;;;332.83;316.30;;;;;;;;;;4994163;28;20439;-60
2022/09/07 13:45:52;;;;;;;273.13;259.73;;;;;;;;;;4994865;28;20474;-60
2022/09/07 13:48:24;;;;;;;268.08;254.98;;;;;;;;;;4999544;28;20466;-59
2022/09/07 13:51:12;;;;;;;274.08;260.65;;;;;;;;;;4999244;28;20042;-60
2022/09/07 13:54:00;;;;;;;200.85;191.00;;;;;;;;;;4996121;28;20057;-59
2022/09/07 13:56:40;;;;;;;276.58;263.02;;;;;;;;;;4996075;28;20104;-59
2022/09/07 13:59:23;;;;;;;;;;;;;;;;;;4987288;28;20042;-58
2022/09/07 14:01:50;;;;;;;174.20;165.55;;;;;;;;;;4997324;28;19979;-59
2022/09/07 14:04:30;;;;;;;186.27;177.18;;;;;;;;;;5000711;28;20112;-59
2022/09/07 14:07:05;;;;;;;215.65;205.15;;;;;;;;;;4996804;28;20230;-59
2022/09/07 14:09:32;;;;;;;172.88;164.38;;;;;;;;;;4995324;28;20093;-59
2022/09/07 14:11:59;;;;;;;257.00;244.45;;;;;;;;;;4994615;28;20034;-58
2022/09/07 14:14:32;;;;;;;259.65;246.90;;;;;;;;;;4995662;28;20519;-58
2022/09/07 14:17:00;;;;;;;237.10;225.55;;;;;;;;;;4994538;28;20034;-58
2022/09/07 14:19:44;;;;;;;224.98;214.00;;;;;;;;;;4995124;28;20066;-59
2022/09/07 14:22:14;;;;;;;202.77;192.95;;;;;;;;;;4996275;28;20129;-58
2022/09/07 14:24:46;;;;;;;169.32;160.93;;;;;;;;;;4998567;28;20070;-58
2022/09/07 14:27:37;;;;;;;160.48;152.57;;;;;;;;;;5000597;28;20048;-59
2022/09/07 14:30:17;;;;;;;180.77;171.93;;;;;;;;;;4995271;28;20050;-58
2022/09/07 14:32:45;;;;;;;294.38;279.95;;;;;;;;;;4993124;28;20105;-58
2022/09/07 14:35:19;;;;;;;260.88;248.00;;;;;;;;;;4996015;28;20148;-58
2022/09/07 14:37:46;;;;;;;325.00;308.85;;;;;;;;;;4996075;28;20133;-58
2022/09/07 14:40:24;;;;;;;325.58;309.42;;;;;;;;;;4995047;28;20048;-58
2022/09/07 14:42:52;;;;;;;328.98;312.60;;;;;;;;;;4994700;28;20033;-58